Time;durP1;ratioP1;P1;durP2;ratioP2;P2;SDS_P1;SDS_P2;PMS_P1;PMS_P2;Temp;Humidity;BMP_temperature;BMP_pressure;BME280_temperature;BME280_humidity;BME280_pressure;Samples;Min_cycle;Max_cycle;Signal;HPM_P1;HPM_P2
2023/05/20 00:02:24;;;;;;;38.40;28.50;;;;;;;-128.00;-1.00;-1.00;105756;1252;1003685;-73
2023/05/20 00:04:50;;;;;;;36.00;28.00;;;;;;;-128.00;-1.00;-1.00;105405;1253;1005263;-73
2023/05/20 00:07:17;;;;;;;36.70;28.70;;;;;;;-128.00;-1.00;-1.00;105769;1252;1003472;-73
2023/05/20 00:09:43;;;;;;;36.30;28.00;;;;;;;-128.00;-1.00;-1.00;105796;1253;1003791;-73
2023/05/20 00:12:10;;;;;;;31.80;25.40;;;;;;;-128.00;-1.00;-1.00;105768;1253;1004430;-73
2023/05/20 00:14:36;;;;;;;34.10;27.20;;;;;;;-128.00;-1.00;-1.00;105770;1251;1003501;-72
2023/05/20 00:17:03;;;;;;;38.20;29.10;;;;;;;-128.00;-1.00;-1.00;105733;1251;1003654;-72
2023/05/20 00:19:30;;;;;;;40.30;29.00;;;;;;;-128.00;-1.00;-1.00;105724;1251;1005667;-72
2023/05/20 00:21:57;;;;;;;41.70;31.20;;;;;;;-128.00;-1.00;-1.00;105720;1252;1004008;-72
2023/05/20 00:24:23;;;;;;;39.80;29.10;;;;;;;-128.00;-1.00;-1.00;105726;1251;1004878;-72
2023/05/20 00:26:50;;;;;;;43.70;31.80;;;;;;;-128.00;-1.00;-1.00;105721;1251;1004906;-72
2023/05/20 00:29:16;;;;;;;44.00;30.50;;;;;;;-128.00;-1.00;-1.00;105707;1251;1004733;-73
2023/05/20 00:31:43;;;;;;;47.00;31.80;;;;;;;-128.00;-1.00;-1.00;105739;1251;1004963;-72
2023/05/20 00:34:09;;;;;;;38.00;28.20;;;;;;;-128.00;-1.00;-1.00;105693;1251;1004819;-72
2023/05/20 00:36:36;;;;;;;41.50;30.00;;;;;;;-128.00;-1.00;-1.00;105760;1251;1004561;-72
2023/05/20 00:39:02;;;;;;;44.00;31.10;;;;;;;-128.00;-1.00;-1.00;105517;1251;1003927;-72
2023/05/20 00:41:29;;;;;;;46.40;32.30;;;;;;;-128.00;-1.00;-1.00;105707;1253;1005104;-72
2023/05/20 00:43:55;;;;;;;44.20;30.70;;;;;;;-128.00;-1.00;-1.00;105728;1251;1004324;-72
2023/05/20 00:46:23;;;;;;;44.40;32.20;;;;;;;-128.00;-1.00;-1.00;105710;1251;1003752;-72
2023/05/20 00:48:50;;;;;;;59.40;37.50;;;;;;;-128.00;-1.00;-1.00;105588;1251;1004948;-72
2023/05/20 00:51:16;;;;;;;51.40;34.70;;;;;;;-128.00;-1.00;-1.00;105711;1251;1004178;-72
2023/05/20 00:53:43;;;;;;;53.80;36.60;;;;;;;-128.00;-1.00;-1.00;105731;1251;1003523;-72
2023/05/20 00:56:10;;;;;;;55.70;36.00;;;;;;;-128.00;-1.00;-1.00;105703;1251;1004733;-72
2023/05/20 00:58:37;;;;;;;50.40;34.10;;;;;;;-128.00;-1.00;-1.00;105400;1251;1004427;-72
2023/05/20 01:01:05;;;;;;;50.40;32.80;;;;;;;-128.00;-1.00;-1.00;105686;1251;1003944;-72
2023/05/20 01:03:32;;;;;;;49.60;32.80;;;;;;;-128.00;-1.00;-1.00;105721;1251;1005283;-72
2023/05/20 01:05:58;;;;;;;46.70;33.20;;;;;;;-128.00;-1.00;-1.00;105547;1251;1004435;-72
2023/05/20 01:08:24;;;;;;;49.60;31.50;;;;;;;-128.00;-1.00;-1.00;105680;1255;1005131;-72
2023/05/20 01:11:07;;;;;;;52.60;34.60;;;;;;;-128.00;-1.00;-1.00;105737;1251;1003995;-72
2023/05/20 01:13:42;;;;;;;51.00;33.20;;;;;;;-128.00;-1.00;-1.00;105671;1253;1061976;-72
2023/05/20 01:16:10;;;;;;;51.20;33.30;;;;;;;-128.00;-1.00;-1.00;105704;1251;1054741;-72
2023/05/20 01:18:38;;;;;;;53.10;34.70;;;;;;;-128.00;-1.00;-1.00;105697;1251;1003613;-72
2023/05/20 01:21:08;;;;;;;55.30;34.20;;;;;;;-128.00;-1.00;-1.00;105679;1251;1004295;-72
2023/05/20 01:23:39;;;;;;;57.60;35.70;;;;;;;-128.00;-1.00;-1.00;105711;1251;1047417;-73
2023/05/20 01:26:06;;;;;;;55.40;34.40;;;;;;;-128.00;-1.00;-1.00;105730;1251;1060839;-72
2023/05/20 01:28:35;;;;;;;59.50;35.50;;;;;;;-128.00;-1.00;-1.00;105742;1251;1003807;-73
2023/05/20 01:31:04;;;;;;;48.90;31.50;;;;;;;-128.00;-1.00;-1.00;105718;1251;1058970;-74
2023/05/20 01:33:34;;;;;;;45.20;28.00;;;;;;;-128.00;-1.00;-1.00;105663;1256;1047453;-73
2023/05/20 01:36:02;;;;;;;42.10;28.80;;;;;;;-128.00;-1.00;-1.00;105688;1251;1046834;-73
2023/05/20 01:38:29;;;;;;;45.20;30.00;;;;;;;-128.00;-1.00;-1.00;105679;1254;1003990;-73
2023/05/20 01:40:56;;;;;;;42.60;29.50;;;;;;;-128.00;-1.00;-1.00;105713;1251;1004821;-73
2023/05/20 01:43:24;;;;;;;42.10;29.30;;;;;;;-128.00;-1.00;-1.00;105534;1251;1003379;-73
2023/05/20 01:45:51;;;;;;;45.90;30.40;;;;;;;-128.00;-1.00;-1.00;105704;1251;1004040;-73
2023/05/20 01:48:17;;;;;;;52.20;32.70;;;;;;;-128.00;-1.00;-1.00;105681;1252;1004243;-73
2023/05/20 01:50:44;;;;;;;47.00;30.80;;;;;;;-128.00;-1.00;-1.00;105694;1251;1004013;-73
2023/05/20 01:53:12;;;;;;;42.80;27.10;;;;;;;-128.00;-1.00;-1.00;105734;1251;1004517;-74
2023/05/20 01:55:38;;;;;;;45.70;29.30;;;;;;;-128.00;-1.00;-1.00;105667;1251;1004278;-73
2023/05/20 01:58:05;;;;;;;42.60;25.80;;;;;;;-128.00;-1.00;-1.00;105678;1251;1004279;-73
2023/05/20 02:00:35;;;;;;;42.60;26.10;;;;;;;-128.00;-1.00;-1.00;105535;1251;1005087;-73
2023/05/20 02:03:02;;;;;;;39.60;25.50;;;;;;;-128.00;-1.00;-1.00;105565;1251;1061887;-73
2023/05/20 02:05:29;;;;;;;38.20;24.20;;;;;;;-128.00;-1.00;-1.00;105662;1251;1004507;-72
2023/05/20 02:07:56;;;;;;;43.00;26.80;;;;;;;-128.00;-1.00;-1.00;105688;1251;1003304;-72
2023/05/20 02:10:22;;;;;;;44.00;28.00;;;;;;;-128.00;-1.00;-1.00;105683;1251;1004465;-73
2023/05/20 02:12:49;;;;;;;44.50;28.00;;;;;;;-128.00;-1.00;-1.00;105691;1251;1004391;-72
2023/05/20 02:15:15;;;;;;;46.60;28.40;;;;;;;-128.00;-1.00;-1.00;105702;1251;1003406;-72
2023/05/20 02:17:45;;;;;;;39.50;26.10;;;;;;;-128.00;-1.00;-1.00;105787;1251;1004355;-73
2023/05/20 02:20:12;;;;;;;41.10;27.10;;;;;;;-128.00;-1.00;-1.00;105739;1251;1058664;-73
2023/05/20 02:22:39;;;;;;;36.90;25.90;;;;;;;-128.00;-1.00;-1.00;105643;1251;1004693;-72
2023/05/20 02:25:07;;;;;;;41.40;28.30;;;;;;;-128.00;-1.00;-1.00;105444;1251;1004841;-72
2023/05/20 02:27:33;;;;;;;32.40;24.20;;;;;;;-128.00;-1.00;-1.00;105553;1251;1003981;-73
2023/05/20 02:30:00;;;;;;;31.50;24.10;;;;;;;-128.00;-1.00;-1.00;105726;1251;1003532;-73
2023/05/20 02:32:27;;;;;;;30.70;24.10;;;;;;;-128.00;-1.00;-1.00;105509;1251;1004535;-73
2023/05/20 02:34:54;;;;;;;29.50;21.80;;;;;;;-128.00;-1.00;-1.00;105674;1251;1004659;-73
2023/05/20 02:37:21;;;;;;;30.30;20.90;;;;;;;-128.00;-1.00;-1.00;105714;1251;1003253;-73
2023/05/20 02:39:47;;;;;;;24.80;20.20;;;;;;;-128.00;-1.00;-1.00;105735;1251;1005051;-73
2023/05/20 02:42:13;;;;;;;30.90;21.80;;;;;;;-128.00;-1.00;-1.00;105725;1251;1004493;-73
2023/05/20 02:44:40;;;;;;;27.70;20.40;;;;;;;-128.00;-1.00;-1.00;105710;1251;1004142;-73
2023/05/20 02:47:06;;;;;;;25.60;20.30;;;;;;;-128.00;-1.00;-1.00;105702;1251;1004745;-73
2023/05/20 02:49:33;;;;;;;27.60;21.00;;;;;;;-128.00;-1.00;-1.00;105720;1251;1003727;-73
2023/05/20 02:51:59;;;;;;;22.90;18.10;;;;;;;-128.00;-1.00;-1.00;105716;1251;1004364;-73
2023/05/20 02:54:26;;;;;;;22.40;17.80;;;;;;;-128.00;-1.00;-1.00;105729;1251;1004253;-73
2023/05/20 02:56:52;;;;;;;23.70;17.40;;;;;;;-128.00;-1.00;-1.00;105731;1251;1005045;-73
2023/05/20 02:59:19;;;;;;;23.90;17.80;;;;;;;-128.00;-1.00;-1.00;105715;1251;1004834;-73
2023/05/20 03:01:45;;;;;;;18.20;14.40;;;;;;;-128.00;-1.00;-1.00;105807;1251;1003585;-73
2023/05/20 03:04:12;;;;;;;19.30;14.80;;;;;;;-128.00;-1.00;-1.00;105723;1251;1004430;-73
2023/05/20 03:06:43;;;;;;;16.30;13.80;;;;;;;-128.00;-1.00;-1.00;105686;1251;1003922;-73
2023/05/20 03:09:10;;;;;;;16.00;14.00;;;;;;;-128.00;-1.00;-1.00;105702;1251;1058763;-72
2023/05/20 03:11:36;;;;;;;17.30;14.10;;;;;;;-128.00;-1.00;-1.00;105684;1251;1004867;-72
2023/05/20 03:14:03;;;;;;;18.70;14.30;;;;;;;-128.00;-1.00;-1.00;105745;1251;1004134;-73
2023/05/20 03:16:29;;;;;;;17.00;14.50;;;;;;;-128.00;-1.00;-1.00;105696;1251;1004003;-73
2023/05/20 03:18:56;;;;;;;19.20;14.40;;;;;;;-128.00;-1.00;-1.00;105738;1251;1003527;-73
2023/05/20 03:21:22;;;;;;;18.90;14.70;;;;;;;-128.00;-1.00;-1.00;105694;1251;1003887;-72
2023/05/20 03:23:49;;;;;;;17.30;13.80;;;;;;;-128.00;-1.00;-1.00;105712;1251;1005684;-73
2023/05/20 03:26:15;;;;;;;17.50;14.40;;;;;;;-128.00;-1.00;-1.00;105760;1251;1004089;-72
2023/05/20 03:28:42;;;;;;;17.20;14.10;;;;;;;-128.00;-1.00;-1.00;105769;1251;1004405;-73
2023/05/20 03:31:08;;;;;;;16.60;14.30;;;;;;;-128.00;-1.00;-1.00;105716;1251;1004022;-72
2023/05/20 03:33:35;;;;;;;15.40;12.90;;;;;;;-128.00;-1.00;-1.00;105751;1251;1003305;-73
2023/05/20 03:36:01;;;;;;;17.60;14.80;;;;;;;-128.00;-1.00;-1.00;105725;1251;1003963;-73
2023/05/20 03:38:28;;;;;;;16.30;14.50;;;;;;;-128.00;-1.00;-1.00;105765;1251;1003909;-73
2023/05/20 03:40:54;;;;;;;19.90;14.90;;;;;;;-128.00;-1.00;-1.00;105753;1251;1004385;-72
2023/05/20 03:43:21;;;;;;;17.30;14.40;;;;;;;-128.00;-1.00;-1.00;105734;1251;1003559;-72
2023/05/20 03:45:47;;;;;;;17.30;14.20;;;;;;;-128.00;-1.00;-1.00;105705;1251;1003905;-73
2023/05/20 03:48:14;;;;;;;22.00;15.20;;;;;;;-128.00;-1.00;-1.00;105721;1251;1003306;-73
2023/05/20 03:50:40;;;;;;;18.80;15.10;;;;;;;-128.00;-1.00;-1.00;105731;1251;1004546;-72
2023/05/20 03:53:06;;;;;;;19.70;15.40;;;;;;;-128.00;-1.00;-1.00;105704;1251;1004291;-73
2023/05/20 03:55:33;;;;;;;20.70;16.50;;;;;;;-128.00;-1.00;-1.00;105731;1251;1004807;-72
2023/05/20 03:58:00;;;;;;;19.90;15.70;;;;;;;-128.00;-1.00;-1.00;105678;1251;1004159;-73
2023/05/20 04:00:29;;;;;;;19.00;16.00;;;;;;;-128.00;-1.00;-1.00;105671;1251;1004303;-72
2023/05/20 04:02:55;;;;;;;21.20;15.60;;;;;;;-128.00;-1.00;-1.00;105726;1251;1046486;-72
2023/05/20 04:05:23;;;;;;;25.40;17.20;;;;;;;-128.00;-1.00;-1.00;105682;1251;1004171;-73
2023/05/20 04:07:50;;;;;;;21.90;17.10;;;;;;;-128.00;-1.00;-1.00;105761;1251;1004336;-73
2023/05/20 04:10:18;;;;;;;21.60;16.50;;;;;;;-128.00;-1.00;-1.00;105738;1251;1004170;-72
2023/05/20 04:12:45;;;;;;;19.40;15.60;;;;;;;-128.00;-1.00;-1.00;105673;1251;1048445;-71
2023/05/20 04:15:12;;;;;;;20.10;15.10;;;;;;;-128.00;-1.00;-1.00;105544;1251;1003973;-72
2023/05/20 04:17:39;;;;;;;22.00;16.70;;;;;;;-128.00;-1.00;-1.00;105707;1251;1003830;-72
2023/05/20 04:20:07;;;;;;;22.10;16.90;;;;;;;-128.00;-1.00;-1.00;105733;1251;1006137;-72
2023/05/20 04:22:33;;;;;;;20.60;16.10;;;;;;;-128.00;-1.00;-1.00;105517;1251;1004222;-72
2023/05/20 04:25:02;;;;;;;22.70;17.50;;;;;;;-128.00;-1.00;-1.00;105646;1251;1005230;-72
2023/05/20 04:27:29;;;;;;;23.20;17.10;;;;;;;-128.00;-1.00;-1.00;105708;1251;1047801;-72
2023/05/20 04:29:57;;;;;;;19.00;16.00;;;;;;;-128.00;-1.00;-1.00;105696;1251;1004376;-72
2023/05/20 04:32:23;;;;;;;23.20;18.10;;;;;;;-128.00;-1.00;-1.00;105729;1250;1004681;-73
2023/05/20 04:34:53;;;;;;;23.70;19.10;;;;;;;-128.00;-1.00;-1.00;105718;1251;1004816;-72
2023/05/20 04:37:19;;;;;;;21.50;17.70;;;;;;;-128.00;-1.00;-1.00;105708;1251;1045507;-72
2023/05/20 04:39:48;;;;;;;22.10;18.00;;;;;;;-128.00;-1.00;-1.00;105717;1251;1004244;-72
2023/05/20 04:42:17;;;;;;;24.20;19.10;;;;;;;-128.00;-1.00;-1.00;105743;1251;1061552;-72
2023/05/20 04:44:44;;;;;;;26.40;18.90;;;;;;;-128.00;-1.00;-1.00;105705;1251;1055803;-72
2023/05/20 04:47:11;;;;;;;23.40;18.30;;;;;;;-128.00;-1.00;-1.00;105733;1251;1004896;-72
2023/05/20 04:49:38;;;;;;;27.00;20.00;;;;;;;-128.00;-1.00;-1.00;105711;1251;1004035;-72
2023/05/20 04:52:04;;;;;;;25.90;19.50;;;;;;;-128.00;-1.00;-1.00;105716;1251;1004229;-72
2023/05/20 04:54:31;;;;;;;25.10;19.00;;;;;;;-128.00;-1.00;-1.00;105696;1251;1003986;-72
2023/05/20 04:56:58;;;;;;;26.50;19.70;;;;;;;-128.00;-1.00;-1.00;105713;1251;1005447;-73
2023/05/20 04:59:25;;;;;;;24.10;19.70;;;;;;;-128.00;-1.00;-1.00;105665;1251;1003861;-71
2023/05/20 05:01:51;;;;;;;25.60;20.10;;;;;;;-128.00;-1.00;-1.00;105679;1251;1004906;-73
2023/05/20 05:04:18;;;;;;;27.10;20.70;;;;;;;-128.00;-1.00;-1.00;105713;1251;1004762;-71
2023/05/20 05:06:47;;;;;;;27.40;20.30;;;;;;;-128.00;-1.00;-1.00;105729;1251;1005114;-73
2023/05/20 05:09:14;;;;;;;25.50;19.50;;;;;;;-128.00;-1.00;-1.00;105647;1251;1056030;-73
2023/05/20 05:11:41;;;;;;;26.10;20.70;;;;;;;-128.00;-1.00;-1.00;105658;1251;1003679;-71
2023/05/20 05:14:07;;;;;;;27.60;20.20;;;;;;;-128.00;-1.00;-1.00;105686;1251;1004307;-73
2023/05/20 05:16:33;;;;;;;28.90;21.90;;;;;;;-128.00;-1.00;-1.00;105740;1251;1003757;-72
2023/05/20 05:19:00;;;;;;;27.40;22.10;;;;;;;-128.00;-1.00;-1.00;105741;1251;1003743;-73
2023/05/20 05:21:26;;;;;;;26.10;20.10;;;;;;;-128.00;-1.00;-1.00;105710;1251;1004742;-72
2023/05/20 05:23:53;;;;;;;26.90;21.60;;;;;;;-128.00;-1.00;-1.00;105708;1251;1003958;-72
2023/05/20 05:26:19;;;;;;;29.60;23.10;;;;;;;-128.00;-1.00;-1.00;105724;1251;1003902;-73
2023/05/20 05:28:46;;;;;;;27.70;20.80;;;;;;;-128.00;-1.00;-1.00;105577;1251;1004971;-73
2023/05/20 05:31:12;;;;;;;28.90;22.40;;;;;;;-128.00;-1.00;-1.00;105730;1251;1003684;-72
2023/05/20 05:33:39;;;;;;;25.50;21.30;;;;;;;-128.00;-1.00;-1.00;105759;1251;1003303;-72
2023/05/20 05:36:05;;;;;;;28.10;21.80;;;;;;;-128.00;-1.00;-1.00;105712;1251;1004435;-72
2023/05/20 05:38:32;;;;;;;28.20;22.10;;;;;;;-128.00;-1.00;-1.00;105703;1251;1003536;-72
2023/05/20 05:40:58;;;;;;;27.80;21.30;;;;;;;-128.00;-1.00;-1.00;105743;1251;1004664;-72
2023/05/20 05:43:25;;;;;;;25.60;21.30;;;;;;;-128.00;-1.00;-1.00;105689;1251;1004618;-72
2023/05/20 05:45:51;;;;;;;29.00;23.20;;;;;;;-128.00;-1.00;-1.00;105650;1251;1004479;-72
2023/05/20 05:48:18;;;;;;;25.10;20.60;;;;;;;-128.00;-1.00;-1.00;105676;1251;1005237;-73
2023/05/20 05:50:45;;;;;;;27.40;21.90;;;;;;;-128.00;-1.00;-1.00;105681;1251;1004218;-73
2023/05/20 05:53:12;;;;;;;25.60;22.00;;;;;;;-128.00;-1.00;-1.00;105690;1251;1004683;-71
2023/05/20 05:55:38;;;;;;;29.60;22.70;;;;;;;-128.00;-1.00;-1.00;105733;1251;1004808;-73
2023/05/20 05:58:05;;;;;;;27.70;21.30;;;;;;;-128.00;-1.00;-1.00;105728;1251;1004284;-72
2023/05/20 06:00:31;;;;;;;29.10;23.40;;;;;;;-128.00;-1.00;-1.00;105558;1251;1004108;-72
2023/05/20 06:02:57;;;;;;;24.10;20.40;;;;;;;-128.00;-1.00;-1.00;105701;1251;1003721;-72
2023/05/20 06:05:24;;;;;;;21.60;18.50;;;;;;;-128.00;-1.00;-1.00;105702;1251;1004027;-73
2023/05/20 06:07:50;;;;;;;23.80;20.80;;;;;;;-128.00;-1.00;-1.00;105691;1251;1003552;-73
2023/05/20 06:10:18;;;;;;;21.30;17.90;;;;;;;-128.00;-1.00;-1.00;105705;1251;1004762;-73
2023/05/20 06:12:44;;;;;;;21.00;18.20;;;;;;;-128.00;-1.00;-1.00;105703;1251;1004546;-73
2023/05/20 06:15:11;;;;;;;22.20;18.60;;;;;;;-128.00;-1.00;-1.00;105682;1251;1004703;-73
2023/05/20 06:17:37;;;;;;;21.30;17.80;;;;;;;-128.00;-1.00;-1.00;105689;1251;1004222;-72
2023/05/20 06:20:05;;;;;;;21.00;18.10;;;;;;;-128.00;-1.00;-1.00;105740;1251;1004662;-72
2023/05/20 06:22:32;;;;;;;23.80;18.80;;;;;;;-128.00;-1.00;-1.00;105735;1251;1004883;-72
2023/05/20 06:25:01;;;;;;;23.30;19.80;;;;;;;-128.00;-1.00;-1.00;105748;1251;1005253;-72
2023/05/20 06:27:27;;;;;;;29.70;24.20;;;;;;;-128.00;-1.00;-1.00;105668;1251;1045899;-74
2023/05/20 06:29:54;;;;;;;20.20;18.00;;;;;;;-128.00;-1.00;-1.00;105681;1251;1005392;-72
2023/05/20 06:32:20;;;;;;;19.00;16.90;;;;;;;-128.00;-1.00;-1.00;105733;1251;1004813;-72
2023/05/20 06:34:47;;;;;;;20.90;17.10;;;;;;;-128.00;-1.00;-1.00;105716;1251;1004940;-72
2023/05/20 06:37:13;;;;;;;20.60;16.90;;;;;;;-128.00;-1.00;-1.00;105684;1251;1004047;-72
2023/05/20 06:39:40;;;;;;;22.00;18.40;;;;;;;-128.00;-1.00;-1.00;105702;1251;1004073;-72
2023/05/20 06:42:07;;;;;;;31.10;24.60;;;;;;;-128.00;-1.00;-1.00;105730;1251;1004588;-71
2023/05/20 06:44:33;;;;;;;22.00;19.00;;;;;;;-128.00;-1.00;-1.00;105702;1251;1004304;-72
2023/05/20 06:47:00;;;;;;;20.60;18.40;;;;;;;-128.00;-1.00;-1.00;105705;1251;1005129;-71
2023/05/20 06:49:27;;;;;;;20.20;17.80;;;;;;;-128.00;-1.00;-1.00;105718;1251;1003844;-72
2023/05/20 06:51:53;;;;;;;19.80;17.60;;;;;;;-128.00;-1.00;-1.00;105666;1251;1004544;-72
2023/05/20 06:54:20;;;;;;;24.60;19.00;;;;;;;-128.00;-1.00;-1.00;105718;1251;1004350;-72
2023/05/20 06:56:47;;;;;;;21.10;17.00;;;;;;;-128.00;-1.00;-1.00;105722;1251;1004806;-73
2023/05/20 06:59:13;;;;;;;21.20;18.90;;;;;;;-128.00;-1.00;-1.00;105753;1251;1004342;-72
2023/05/20 07:01:40;;;;;;;18.90;16.80;;;;;;;-128.00;-1.00;-1.00;105687;1251;1004266;-74
2023/05/20 07:04:06;;;;;;;19.20;17.20;;;;;;;-128.00;-1.00;-1.00;105694;1251;1004733;-73
2023/05/20 07:06:33;;;;;;;18.80;16.70;;;;;;;-128.00;-1.00;-1.00;105733;1251;1004369;-73
2023/05/20 07:09:00;;;;;;;21.40;17.90;;;;;;;-128.00;-1.00;-1.00;105752;1251;1004390;-72
2023/05/20 07:11:26;;;;;;;21.40;16.40;;;;;;;-128.00;-1.00;-1.00;105781;1251;1004332;-73
2023/05/20 07:13:53;;;;;;;21.30;17.40;;;;;;;-128.00;-1.00;-1.00;105687;1251;1004423;-72
2023/05/20 07:16:19;;;;;;;18.30;16.40;;;;;;;-128.00;-1.00;-1.00;105708;1251;1004286;-73
2023/05/20 07:18:46;;;;;;;20.00;16.00;;;;;;;-128.00;-1.00;-1.00;105724;1251;1004521;-73
2023/05/20 07:21:12;;;;;;;18.20;16.10;;;;;;;-128.00;-1.00;-1.00;105599;1251;1004511;-72
2023/05/20 07:23:39;;;;;;;18.20;16.20;;;;;;;-128.00;-1.00;-1.00;105702;1251;1003504;-73
2023/05/20 07:26:06;;;;;;;17.20;15.40;;;;;;;-128.00;-1.00;-1.00;105743;1251;1004651;-73
2023/05/20 07:28:33;;;;;;;18.70;16.80;;;;;;;-128.00;-1.00;-1.00;105749;1251;1004578;-72
2023/05/20 07:30:59;;;;;;;18.80;15.60;;;;;;;-128.00;-1.00;-1.00;105724;1251;1004034;-73
2023/05/20 07:33:26;;;;;;;16.80;14.80;;;;;;;-128.00;-1.00;-1.00;105550;1251;1003452;-72
2023/05/20 07:35:53;;;;;;;17.10;15.40;;;;;;;-128.00;-1.00;-1.00;105689;1251;1004705;-73
2023/05/20 07:38:19;;;;;;;16.60;14.80;;;;;;;-128.00;-1.00;-1.00;105708;1251;1004692;-73
2023/05/20 07:40:46;;;;;;;16.70;14.90;;;;;;;-128.00;-1.00;-1.00;105700;1251;1003270;-73
2023/05/20 07:43:13;;;;;;;17.00;14.80;;;;;;;-128.00;-1.00;-1.00;105426;1251;1003538;-73
2023/05/20 07:45:40;;;;;;;16.80;15.10;;;;;;;-128.00;-1.00;-1.00;105619;1251;1003949;-73
2023/05/20 07:48:07;;;;;;;15.90;14.30;;;;;;;-128.00;-1.00;-1.00;105747;1251;1003379;-73
2023/05/20 07:50:35;;;;;;;16.00;14.20;;;;;;;-128.00;-1.00;-1.00;105671;1251;1003220;-72
2023/05/20 07:53:02;;;;;;;15.50;13.90;;;;;;;-128.00;-1.00;-1.00;105711;1251;1004483;-72
2023/05/20 07:55:28;;;;;;;16.70;15.00;;;;;;;-128.00;-1.00;-1.00;105731;1251;1004104;-72
2023/05/20 07:57:54;;;;;;;17.10;15.30;;;;;;;-128.00;-1.00;-1.00;105722;1251;1004352;-73
2023/05/20 08:00:21;;;;;;;17.30;14.40;;;;;;;-128.00;-1.00;-1.00;105730;1251;1004608;-73
2023/05/20 08:02:48;;;;;;;17.90;16.00;;;;;;;-128.00;-1.00;-1.00;105713;1251;1004360;-73
2023/05/20 08:05:15;;;;;;;18.10;16.20;;;;;;;-128.00;-1.00;-1.00;105689;1251;1004260;-73
2023/05/20 08:07:41;;;;;;;17.60;15.70;;;;;;;-128.00;-1.00;-1.00;105573;1251;1004186;-73
2023/05/20 08:10:08;;;;;;;17.00;15.30;;;;;;;-128.00;-1.00;-1.00;105705;1251;1004095;-72
2023/05/20 08:12:34;;;;;;;15.40;13.90;;;;;;;-128.00;-1.00;-1.00;105713;1251;1003583;-72
2023/05/20 08:15:03;;;;;;;16.10;14.50;;;;;;;-128.00;-1.00;-1.00;105725;1251;1004486;-72
2023/05/20 08:17:32;;;;;;;15.00;13.60;;;;;;;-128.00;-1.00;-1.00;105697;1251;1047071;-74
2023/05/20 08:19:58;;;;;;;15.70;14.10;;;;;;;-128.00;-1.00;-1.00;105707;1251;1048767;-73
2023/05/20 08:22:25;;;;;;;15.70;14.20;;;;;;;-128.00;-1.00;-1.00;105709;1251;1004693;-72
2023/05/20 08:24:51;;;;;;;15.10;13.60;;;;;;;-128.00;-1.00;-1.00;105566;1251;1004242;-73
2023/05/20 08:27:18;;;;;;;15.50;14.00;;;;;;;-128.00;-1.00;-1.00;105664;1251;1004533;-73
2023/05/20 08:29:44;;;;;;;17.50;15.70;;;;;;;-128.00;-1.00;-1.00;105743;1251;1004655;-73
2023/05/20 08:32:11;;;;;;;16.30;14.60;;;;;;;-128.00;-1.00;-1.00;105718;1251;1004940;-72
2023/05/20 08:34:37;;;;;;;15.90;14.40;;;;;;;-128.00;-1.00;-1.00;105754;1251;1004288;-72
2023/05/20 08:37:04;;;;;;;17.00;15.30;;;;;;;-128.00;-1.00;-1.00;105733;1251;1004988;-73
2023/05/20 08:39:30;;;;;;;15.90;14.40;;;;;;;-128.00;-1.00;-1.00;105726;1251;1004737;-72
2023/05/20 08:41:57;;;;;;;16.10;14.50;;;;;;;-128.00;-1.00;-1.00;105754;1251;1004292;-72
2023/05/20 08:44:25;;;;;;;16.40;14.80;;;;;;;-128.00;-1.00;-1.00;105749;1251;1004636;-72
2023/05/20 08:46:52;;;;;;;16.90;15.20;;;;;;;-128.00;-1.00;-1.00;105660;1251;1003982;-72
2023/05/20 08:49:19;;;;;;;18.20;16.40;;;;;;;-128.00;-1.00;-1.00;105723;1251;1003704;-72
2023/05/20 08:51:47;;;;;;;16.70;15.00;;;;;;;-128.00;-1.00;-1.00;105723;1251;1004588;-72
2023/05/20 08:54:15;;;;;;;16.60;15.00;;;;;;;-128.00;-1.00;-1.00;105781;1251;1003965;-73
2023/05/20 08:56:43;;;;;;;17.50;15.90;;;;;;;-128.00;-1.00;-1.00;105742;1251;1047199;-72
2023/05/20 08:59:09;;;;;;;17.00;15.20;;;;;;;-128.00;-1.00;-1.00;105721;1251;1003640;-73
2023/05/20 09:01:42;;;;;;;16.50;14.90;;;;;;;-128.00;-1.00;-1.00;105730;1251;1004557;-73
2023/05/20 09:04:09;;;;;;;16.10;14.50;;;;;;;-128.00;-1.00;-1.00;105685;1251;1059295;-72
2023/05/20 09:06:45;;;;;;;16.20;14.70;;;;;;;-128.00;-1.00;-1.00;105697;1251;1005202;-72
2023/05/20 09:09:13;;;;;;;16.70;15.10;;;;;;;-128.00;-1.00;-1.00;105647;1251;1048949;-73
2023/05/20 09:11:41;;;;;;;17.00;15.40;;;;;;;-128.00;-1.00;-1.00;105707;1251;1003453;-73
2023/05/20 09:14:07;;;;;;;18.10;16.40;;;;;;;-128.00;-1.00;-1.00;105772;1251;1003843;-72
2023/05/20 09:16:34;;;;;;;18.30;16.30;;;;;;;-128.00;-1.00;-1.00;105677;1251;1004647;-73
2023/05/20 09:19:01;;;;;;;16.70;15.20;;;;;;;-128.00;-1.00;-1.00;105677;1251;1003998;-73
2023/05/20 09:21:28;;;;;;;16.30;14.70;;;;;;;-128.00;-1.00;-1.00;105717;1251;1005054;-73
2023/05/20 09:23:58;;;;;;;17.70;15.90;;;;;;;-128.00;-1.00;-1.00;105662;1251;1004216;-73
2023/05/20 09:26:28;;;;;;;;;;;;;;;-128.00;-1.00;-1.00;105722;1251;1055096;-73
2023/05/20 09:28:56;;;;;;;17.30;15.70;;;;;;;-128.00;-1.00;-1.00;105653;1251;1058276;-73
2023/05/20 09:31:28;;;;;;;17.40;15.80;;;;;;;-128.00;-1.00;-1.00;105627;1251;1003694;-72
2023/05/20 09:33:54;;;;;;;16.90;15.40;;;;;;;-128.00;-1.00;-1.00;105805;1251;1047152;-73
2023/05/20 09:36:22;;;;;;;15.70;14.30;;;;;;;-128.00;-1.00;-1.00;105726;1251;1004685;-73
2023/05/20 09:38:52;;;;;;;16.20;14.80;;;;;;;-128.00;-1.00;-1.00;105686;1251;1004157;-73
2023/05/20 09:41:21;;;;;;;17.70;16.00;;;;;;;-128.00;-1.00;-1.00;105688;1251;1059624;-73
2023/05/20 09:43:48;;;;;;;17.50;15.80;;;;;;;-128.00;-1.00;-1.00;105656;1251;1003499;-73
2023/05/20 09:46:16;;;;;;;16.70;15.10;;;;;;;-128.00;-1.00;-1.00;105576;1251;1004182;-73
2023/05/20 09:48:43;;;;;;;17.00;15.40;;;;;;;-128.00;-1.00;-1.00;105742;1251;1004245;-73
2023/05/20 09:51:12;;;;;;;17.00;15.20;;;;;;;-128.00;-1.00;-1.00;105738;1251;1003332;-73
2023/05/20 09:53:39;;;;;;;16.20;14.70;;;;;;;-128.00;-1.00;-1.00;105704;1251;1058596;-73
2023/05/20 09:56:06;;;;;;;17.90;16.20;;;;;;;-128.00;-1.00;-1.00;105679;1251;1004658;-73
2023/05/20 09:58:35;;;;;;;17.30;15.60;;;;;;;-128.00;-1.00;-1.00;105767;1251;1004295;-72
2023/05/20 10:01:01;;;;;;;17.80;16.20;;;;;;;-128.00;-1.00;-1.00;105710;1251;1061369;-73
2023/05/20 10:03:28;;;;;;;18.70;16.90;;;;;;;-128.00;-1.00;-1.00;105769;1251;1004980;-73
2023/05/20 10:06:13;;;;;;;19.90;17.90;;;;;;;-128.00;-1.00;-1.00;105683;1251;1005193;-73
2023/05/20 10:08:51;;;;;;;18.60;16.90;;;;;;;-128.00;-1.00;-1.00;105735;1251;1047410;-73
2023/05/20 10:11:23;;;;;;;17.50;15.80;;;;;;;-128.00;-1.00;-1.00;105715;1251;1046655;-72
2023/05/20 10:13:52;;;;;;;17.80;16.10;;;;;;;-128.00;-1.00;-1.00;105725;1251;1061253;-73
2023/05/20 10:16:53;;;;;;;18.50;16.90;;;;;;;-128.00;-1.00;-1.00;105712;1251;1056156;-73
2023/05/20 10:19:31;;;;;;;18.90;17.30;;;;;;;-128.00;-1.00;-1.00;105724;1251;1061335;-73
2023/05/20 10:22:07;;;;;;;19.80;18.00;;;;;;;-128.00;-1.00;-1.00;105714;1251;1045949;-73
2023/05/20 10:24:42;;;;;;;19.20;17.40;;;;;;;-128.00;-1.00;-1.00;105714;1251;1047106;-72
2023/05/20 10:27:13;;;;;;;21.30;19.20;;;;;;;-128.00;-1.00;-1.00;105710;1251;1061787;-73
2023/05/20 10:29:42;;;;;;;21.20;19.20;;;;;;;-128.00;-1.00;-1.00;105673;1251;1055199;-73
2023/05/20 10:32:09;;;;;;;22.20;20.10;;;;;;;-128.00;-1.00;-1.00;105708;1251;1060144;-73
2023/05/20 10:34:47;;;;;;;21.20;19.00;;;;;;;-128.00;-1.00;-1.00;105763;1251;1004400;-72
2023/05/20 10:37:26;;;;;;;23.70;21.40;;;;;;;-128.00;-1.00;-1.00;105593;1251;1046727;-73
2023/05/20 10:40:04;;;;;;;22.90;20.70;;;;;;;-128.00;-1.00;-1.00;105546;1251;1061522;-72
2023/05/20 10:42:31;;;;;;;22.70;20.60;;;;;;;-128.00;-1.00;-1.00;105667;1251;1054920;-73
2023/05/20 10:44:57;;;;;;;25.00;22.50;;;;;;;-128.00;-1.00;-1.00;105729;1251;1004521;-73
2023/05/20 10:47:24;;;;;;;25.20;22.70;;;;;;;-128.00;-1.00;-1.00;105738;1251;1003335;-73
2023/05/20 10:49:50;;;;;;;26.90;24.10;;;;;;;-128.00;-1.00;-1.00;105767;1251;1004564;-72
2023/05/20 10:52:17;;;;;;;26.10;23.40;;;;;;;-128.00;-1.00;-1.00;105768;1251;1004357;-73
2023/05/20 10:54:58;;;;;;;27.30;24.50;;;;;;;-128.00;-1.00;-1.00;105439;1251;1004210;-72
2023/05/20 10:57:28;;;;;;;25.90;23.20;;;;;;;-128.00;-1.00;-1.00;105731;1251;1059224;-73
2023/05/20 10:59:55;;;;;;;27.10;24.50;;;;;;;-128.00;-1.00;-1.00;105724;1251;1045843;-73
2023/05/20 11:02:25;;;;;;;26.40;23.80;;;;;;;-128.00;-1.00;-1.00;105725;1253;1003833;-71
2023/05/20 11:04:52;;;;;;;27.50;24.40;;;;;;;-128.00;-1.00;-1.00;105740;1251;1062659;-71